sensor_id;sensor_type;location;lat;lon;timestamp;P1;durP1;ratioP1;P2;durP2;ratioP2
2848;SDS011;59355;52.416;13.412;2022-07-01T00:02:25;17.97;;;16.37;;
2848;SDS011;59355;52.416;13.412;2022-07-01T00:04:51;19.30;;;16.83;;
2848;SDS011;59355;52.416;13.412;2022-07-01T00:07:17;17.00;;;15.50;;
2848;SDS011;59355;52.416;13.412;2022-07-01T00:09:43;16.10;;;14.70;;
2848;SDS011;59355;52.416;13.412;2022-07-01T00:12:10;15.70;;;14.30;;
2848;SDS011;59355;52.416;13.412;2022-07-01T00:14:36;18.30;;;16.80;;
2848;SDS011;59355;52.416;13.412;2022-07-01T00:17:02;17.90;;;16.30;;
2848;SDS011;59355;52.416;13.412;2022-07-01T00:19:28;18.23;;;16.63;;
2848;SDS011;59355;52.416;13.412;2022-07-01T00:21:54;18.43;;;16.63;;
2848;SDS011;59355;52.416;13.412;2022-07-01T00:24:20;18.23;;;16.37;;
2848;SDS011;59355;52.416;13.412;2022-07-01T00:26:46;17.90;;;16.37;;
2848;SDS011;59355;52.416;13.412;2022-07-01T00:29:12;19.67;;;17.97;;
2848;SDS011;59355;52.416;13.412;2022-07-01T00:31:38;17.73;;;16.23;;
2848;SDS011;59355;52.416;13.412;2022-07-01T00:34:04;19.87;;;18.03;;
2848;SDS011;59355;52.416;13.412;2022-07-01T00:36:31;18.73;;;17.20;;
2848;SDS011;59355;52.416;13.412;2022-07-01T00:39:00;20.47;;;18.47;;
2848;SDS011;59355;52.416;13.412;2022-07-01T00:41:26;18.03;;;16.43;;
2848;SDS011;59355;52.416;13.412;2022-07-01T00:43:52;19.30;;;17.60;;
2848;SDS011;59355;52.416;13.412;2022-07-01T00:46:19;19.80;;;18.07;;
2848;SDS011;59355;52.416;13.412;2022-07-01T00:48:45;20.73;;;18.60;;
2848;SDS011;59355;52.416;13.412;2022-07-01T00:51:11;19.87;;;17.73;;
2848;SDS011;59355;52.416;13.412;2022-07-01T00:53:37;19.90;;;18.20;;
2848;SDS011;59355;52.416;13.412;2022-07-01T00:56:03;20.73;;;18.83;;
2848;SDS011;59355;52.416;13.412;2022-07-01T00:58:30;19.67;;;17.97;;
2848;SDS011;59355;52.416;13.412;2022-07-01T01:00:56;21.13;;;19.23;;
2848;SDS011;59355;52.416;13.412;2022-07-01T01:03:24;19.63;;;18.03;;
2848;SDS011;59355;52.416;13.412;2022-07-01T01:05:50;21.20;;;19.27;;
2848;SDS011;59355;52.416;13.412;2022-07-01T01:08:20;19.83;;;18.03;;
2848;SDS011;59355;52.416;13.412;2022-07-01T01:10:46;21.10;;;19.10;;
2848;SDS011;59355;52.416;13.412;2022-07-01T01:13:13;19.80;;;18.20;;
2848;SDS011;59355;52.416;13.412;2022-07-01T01:15:39;19.97;;;18.27;;
2848;SDS011;59355;52.416;13.412;2022-07-01T01:18:06;18.90;;;17.23;;
2848;SDS011;59355;52.416;13.412;2022-07-01T01:20:35;22.03;;;20.03;;
2848;SDS011;59355;52.416;13.412;2022-07-01T01:23:02;20.97;;;18.97;;
2848;SDS011;59355;52.416;13.412;2022-07-01T01:25:32;21.33;;;19.43;;
2848;SDS011;59355;52.416;13.412;2022-07-01T01:27:58;20.63;;;18.73;;
2848;SDS011;59355;52.416;13.412;2022-07-01T01:30:25;23.03;;;20.97;;
2848;SDS011;59355;52.416;13.412;2022-07-01T01:32:51;24.67;;;22.07;;
2848;SDS011;59355;52.416;13.412;2022-07-01T01:35:18;22.47;;;20.37;;
2848;SDS011;59355;52.416;13.412;2022-07-01T01:37:45;22.80;;;20.70;;
2848;SDS011;59355;52.416;13.412;2022-07-01T01:40:11;21.60;;;19.40;;
2848;SDS011;59355;52.416;13.412;2022-07-01T01:42:39;21.40;;;19.40;;
2848;SDS011;59355;52.416;13.412;2022-07-01T01:45:06;20.67;;;18.83;;
2848;SDS011;59355;52.416;13.412;2022-07-01T01:47:33;23.37;;;21.17;;
2848;SDS011;59355;52.416;13.412;2022-07-01T01:49:59;22.90;;;20.73;;
2848;SDS011;59355;52.416;13.412;2022-07-01T01:52:25;23.50;;;21.30;;
2848;SDS011;59355;52.416;13.412;2022-07-01T01:54:51;21.23;;;19.43;;
2848;SDS011;59355;52.416;13.412;2022-07-01T01:57:17;23.90;;;21.70;;
2848;SDS011;59355;52.416;13.412;2022-07-01T01:59:43;23.10;;;21.00;;
2848;SDS011;59355;52.416;13.412;2022-07-01T02:02:09;23.80;;;21.57;;
2848;SDS011;59355;52.416;13.412;2022-07-01T02:04:35;24.50;;;22.30;;
2848;SDS011;59355;52.416;13.412;2022-07-01T02:07:02;23.00;;;20.93;;
2848;SDS011;59355;52.416;13.412;2022-07-01T02:09:28;23.20;;;20.90;;
2848;SDS011;59355;52.416;13.412;2022-07-01T02:11:54;24.40;;;22.10;;
2848;SDS011;59355;52.416;13.412;2022-07-01T02:14:20;22.70;;;20.60;;
2848;SDS011;59355;52.416;13.412;2022-07-01T02:16:47;21.27;;;19.37;;
2848;SDS011;59355;52.416;13.412;2022-07-01T02:19:13;24.70;;;22.10;;
2848;SDS011;59355;52.416;13.412;2022-07-01T02:21:39;25.57;;;23.37;;
2848;SDS011;59355;52.416;13.412;2022-07-01T02:24:05;24.40;;;22.07;;
2848;SDS011;59355;52.416;13.412;2022-07-01T02:26:31;24.67;;;22.30;;
2848;SDS011;59355;52.416;13.412;2022-07-01T02:28:57;24.03;;;21.80;;
2848;SDS011;59355;52.416;13.412;2022-07-01T02:31:23;25.80;;;23.43;;
2848;SDS011;59355;52.416;13.412;2022-07-01T02:33:49;24.00;;;21.80;;
2848;SDS011;59355;52.416;13.412;2022-07-01T02:36:15;24.30;;;22.10;;
2848;SDS011;59355;52.416;13.412;2022-07-01T02:38:41;25.50;;;23.10;;
2848;SDS011;59355;52.416;13.412;2022-07-01T02:41:07;25.03;;;22.60;;
2848;SDS011;59355;52.416;13.412;2022-07-01T02:43:35;26.67;;;24.07;;
2848;SDS011;59355;52.416;13.412;2022-07-01T02:46:02;24.83;;;22.63;;
2848;SDS011;59355;52.416;13.412;2022-07-01T02:48:28;23.33;;;21.10;;
2848;SDS011;59355;52.416;13.412;2022-07-01T02:50:54;26.30;;;23.63;;
2848;SDS011;59355;52.416;13.412;2022-07-01T02:53:20;27.20;;;24.60;;
2848;SDS011;59355;52.416;13.412;2022-07-01T02:55:46;25.73;;;23.33;;
2848;SDS011;59355;52.416;13.412;2022-07-01T02:58:13;27.13;;;24.50;;
2848;SDS011;59355;52.416;13.412;2022-07-01T03:00:39;27.73;;;24.50;;
2848;SDS011;59355;52.416;13.412;2022-07-01T03:03:05;24.93;;;22.67;;
2848;SDS011;59355;52.416;13.412;2022-07-01T03:05:31;28.10;;;25.20;;
2848;SDS011;59355;52.416;13.412;2022-07-01T03:07:57;25.23;;;23.07;;
2848;SDS011;59355;52.416;13.412;2022-07-01T03:10:23;25.40;;;23.10;;
2848;SDS011;59355;52.416;13.412;2022-07-01T03:12:49;25.57;;;23.20;;
2848;SDS011;59355;52.416;13.412;2022-07-01T03:15:15;27.30;;;24.77;;
2848;SDS011;59355;52.416;13.412;2022-07-01T03:17:43;26.87;;;24.37;;
2848;SDS011;59355;52.416;13.412;2022-07-01T03:20:11;25.83;;;23.53;;
2848;SDS011;59355;52.416;13.412;2022-07-01T03:22:42;25.60;;;23.20;;
2848;SDS011;59355;52.416;13.412;2022-07-01T03:25:10;27.87;;;25.00;;
2848;SDS011;59355;52.416;13.412;2022-07-01T03:27:36;27.07;;;24.47;;
2848;SDS011;59355;52.416;13.412;2022-07-01T03:30:05;26.77;;;24.07;;
2848;SDS011;59355;52.416;13.412;2022-07-01T03:32:32;26.03;;;23.67;;
2848;SDS011;59355;52.416;13.412;2022-07-01T03:34:59;27.83;;;25.37;;
2848;SDS011;59355;52.416;13.412;2022-07-01T03:37:25;25.07;;;22.73;;
2848;SDS011;59355;52.416;13.412;2022-07-01T03:39:51;27.63;;;24.93;;
2848;SDS011;59355;52.416;13.412;2022-07-01T03:42:18;30.83;;;27.80;;
2848;SDS011;59355;52.416;13.412;2022-07-01T03:44:45;27.00;;;24.33;;
2848;SDS011;59355;52.416;13.412;2022-07-01T03:47:11;28.17;;;25.37;;
2848;SDS011;59355;52.416;13.412;2022-07-01T03:49:37;26.80;;;24.30;;
2848;SDS011;59355;52.416;13.412;2022-07-01T03:52:03;26.23;;;23.80;;
2848;SDS011;59355;52.416;13.412;2022-07-01T03:54:30;28.00;;;25.40;;
2848;SDS011;59355;52.416;13.412;2022-07-01T03:57:01;27.90;;;25.10;;
2848;SDS011;59355;52.416;13.412;2022-07-01T03:59:29;28.47;;;25.87;;
2848;SDS011;59355;52.416;13.412;2022-07-01T04:01:57;29.30;;;26.43;;
2848;SDS011;59355;52.416;13.412;2022-07-01T04:04:24;26.40;;;24.03;;
2848;SDS011;59355;52.416;13.412;2022-07-01T04:06:52;26.47;;;23.20;;
2848;SDS011;59355;52.416;13.412;2022-07-01T04:09:20;28.30;;;25.70;;
2848;SDS011;59355;52.416;13.412;2022-07-01T04:11:47;29.00;;;26.13;;
2848;SDS011;59355;52.416;13.412;2022-07-01T04:14:14;27.53;;;24.70;;
2848;SDS011;59355;52.416;13.412;2022-07-01T04:16:40;29.73;;;26.70;;
2848;SDS011;59355;52.416;13.412;2022-07-01T04:19:10;28.83;;;25.93;;
2848;SDS011;59355;52.416;13.412;2022-07-01T04:21:37;28.70;;;26.00;;
2848;SDS011;59355;52.416;13.412;2022-07-01T04:24:21;26.33;;;23.90;;
2848;SDS011;59355;52.416;13.412;2022-07-01T04:26:51;25.50;;;22.90;;
2848;SDS011;59355;52.416;13.412;2022-07-01T04:29:17;29.17;;;26.20;;
2848;SDS011;59355;52.416;13.412;2022-07-01T04:31:44;24.57;;;22.03;;
2848;SDS011;59355;52.416;13.412;2022-07-01T04:34:11;27.10;;;24.30;;
2848;SDS011;59355;52.416;13.412;2022-07-01T04:36:38;27.63;;;24.97;;
2848;SDS011;59355;52.416;13.412;2022-07-01T04:39:04;30.07;;;27.27;;
2848;SDS011;59355;52.416;13.412;2022-07-01T04:41:31;30.17;;;27.37;;
2848;SDS011;59355;52.416;13.412;2022-07-01T04:44:16;29.90;;;27.00;;
2848;SDS011;59355;52.416;13.412;2022-07-01T04:46:43;30.17;;;27.30;;
2848;SDS011;59355;52.416;13.412;2022-07-01T04:49:09;29.80;;;27.10;;
2848;SDS011;59355;52.416;13.412;2022-07-01T04:51:35;29.60;;;26.80;;
2848;SDS011;59355;52.416;13.412;2022-07-01T04:54:04;28.57;;;25.63;;
2848;SDS011;59355;52.416;13.412;2022-07-01T04:56:34;29.47;;;26.67;;
2848;SDS011;59355;52.416;13.412;2022-07-01T04:59:01;29.67;;;26.73;;
2848;SDS011;59355;52.416;13.412;2022-07-01T05:01:28;29.67;;;26.77;;
2848;SDS011;59355;52.416;13.412;2022-07-01T05:03:57;29.00;;;26.40;;
2848;SDS011;59355;52.416;13.412;2022-07-01T05:06:24;32.27;;;24.67;;
2848;SDS011;59355;52.416;13.412;2022-07-01T05:08:50;28.47;;;25.77;;
2848;SDS011;59355;52.416;13.412;2022-07-01T05:11:16;29.93;;;26.93;;
2848;SDS011;59355;52.416;13.412;2022-07-01T05:13:42;28.87;;;26.07;;
2848;SDS011;59355;52.416;13.412;2022-07-01T05:16:08;29.13;;;26.40;;
2848;SDS011;59355;52.416;13.412;2022-07-01T05:18:36;28.20;;;25.50;;
2848;SDS011;59355;52.416;13.412;2022-07-01T05:21:21;26.10;;;23.50;;
2848;SDS011;59355;52.416;13.412;2022-07-01T05:24:06;26.07;;;23.23;;
2848;SDS011;59355;52.416;13.412;2022-07-01T05:26:32;27.43;;;24.63;;
2848;SDS011;59355;52.416;13.412;2022-07-01T05:28:59;25.77;;;23.33;;
2848;SDS011;59355;52.416;13.412;2022-07-01T05:31:25;25.23;;;22.83;;
2848;SDS011;59355;52.416;13.412;2022-07-01T05:33:51;26.40;;;22.57;;
2848;SDS011;59355;52.416;13.412;2022-07-01T05:36:18;24.70;;;22.43;;
2848;SDS011;59355;52.416;13.412;2022-07-01T05:38:44;24.10;;;21.90;;
2848;SDS011;59355;52.416;13.412;2022-07-01T05:41:10;26.13;;;23.53;;
2848;SDS011;59355;52.416;13.412;2022-07-01T05:43:36;25.30;;;22.70;;
2848;SDS011;59355;52.416;13.412;2022-07-01T05:46:02;23.37;;;21.37;;
2848;SDS011;59355;52.416;13.412;2022-07-01T05:48:28;23.90;;;21.60;;
2848;SDS011;59355;52.416;13.412;2022-07-01T05:50:55;24.13;;;21.83;;
2848;SDS011;59355;52.416;13.412;2022-07-01T05:53:21;22.03;;;19.93;;
2848;SDS011;59355;52.416;13.412;2022-07-01T05:55:47;23.73;;;21.47;;
2848;SDS011;59355;52.416;13.412;2022-07-01T05:58:14;23.63;;;21.37;;
2848;SDS011;59355;52.416;13.412;2022-07-01T06:00:40;25.90;;;23.33;;
2848;SDS011;59355;52.416;13.412;2022-07-01T06:03:10;25.00;;;22.73;;
2848;SDS011;59355;52.416;13.412;2022-07-01T06:05:38;25.57;;;22.97;;
2848;SDS011;59355;52.416;13.412;2022-07-01T06:08:04;26.70;;;24.20;;
2848;SDS011;59355;52.416;13.412;2022-07-01T06:10:32;24.07;;;21.87;;
2848;SDS011;59355;52.416;13.412;2022-07-01T06:12:58;26.03;;;23.37;;
2848;SDS011;59355;52.416;13.412;2022-07-01T06:15:25;26.60;;;24.00;;
2848;SDS011;59355;52.416;13.412;2022-07-01T06:17:51;26.57;;;23.97;;
2848;SDS011;59355;52.416;13.412;2022-07-01T06:20:17;25.33;;;23.03;;
2848;SDS011;59355;52.416;13.412;2022-07-01T06:22:43;28.00;;;25.23;;
2848;SDS011;59355;52.416;13.412;2022-07-01T06:25:09;27.30;;;24.60;;
2848;SDS011;59355;52.416;13.412;2022-07-01T06:27:39;26.50;;;24.20;;
2848;SDS011;59355;52.416;13.412;2022-07-01T06:30:06;25.23;;;22.73;;
2848;SDS011;59355;52.416;13.412;2022-07-01T06:32:33;25.97;;;23.57;;
2848;SDS011;59355;52.416;13.412;2022-07-01T06:34:59;27.83;;;25.00;;
2848;SDS011;59355;52.416;13.412;2022-07-01T06:37:25;26.80;;;23.73;;
2848;SDS011;59355;52.416;13.412;2022-07-01T06:39:52;26.00;;;23.57;;
2848;SDS011;59355;52.416;13.412;2022-07-01T06:42:18;28.50;;;25.90;;
2848;SDS011;59355;52.416;13.412;2022-07-01T06:44:44;27.47;;;24.60;;
2848;SDS011;59355;52.416;13.412;2022-07-01T06:47:10;25.37;;;23.13;;
2848;SDS011;59355;52.416;13.412;2022-07-01T06:49:36;27.13;;;24.63;;
2848;SDS011;59355;52.416;13.412;2022-07-01T06:52:03;27.20;;;24.80;;
2848;SDS011;59355;52.416;13.412;2022-07-01T06:54:30;25.67;;;23.20;;
2848;SDS011;59355;52.416;13.412;2022-07-01T06:56:56;25.77;;;23.47;;
2848;SDS011;59355;52.416;13.412;2022-07-01T06:59:22;26.17;;;23.77;;
2848;SDS011;59355;52.416;13.412;2022-07-01T07:01:48;25.20;;;22.77;;
2848;SDS011;59355;52.416;13.412;2022-07-01T07:04:15;26.77;;;24.37;;
2848;SDS011;59355;52.416;13.412;2022-07-01T07:06:42;24.60;;;22.37;;
2848;SDS011;59355;52.416;13.412;2022-07-01T07:09:08;24.10;;;21.80;;
2848;SDS011;59355;52.416;13.412;2022-07-01T07:11:34;25.20;;;22.83;;
2848;SDS011;59355;52.416;13.412;2022-07-01T07:14:00;24.30;;;21.93;;
2848;SDS011;59355;52.416;13.412;2022-07-01T07:16:26;24.47;;;22.27;;
2848;SDS011;59355;52.416;13.412;2022-07-01T07:18:53;25.27;;;22.90;;
2848;SDS011;59355;52.416;13.412;2022-07-01T07:21:19;24.47;;;22.27;;
2848;SDS011;59355;52.416;13.412;2022-07-01T07:23:45;22.70;;;20.70;;
2848;SDS011;59355;52.416;13.412;2022-07-01T07:26:11;24.07;;;21.97;;
2848;SDS011;59355;52.416;13.412;2022-07-01T07:28:37;22.87;;;20.67;;
2848;SDS011;59355;52.416;13.412;2022-07-01T07:31:03;23.23;;;21.23;;
2848;SDS011;59355;52.416;13.412;2022-07-01T07:33:30;21.63;;;19.50;;
2848;SDS011;59355;52.416;13.412;2022-07-01T07:35:56;23.80;;;21.43;;
2848;SDS011;59355;52.416;13.412;2022-07-01T07:38:22;23.60;;;21.40;;
2848;SDS011;59355;52.416;13.412;2022-07-01T07:40:48;24.10;;;21.80;;
2848;SDS011;59355;52.416;13.412;2022-07-01T07:43:14;21.93;;;19.60;;
2848;SDS011;59355;52.416;13.412;2022-07-01T07:45:40;20.17;;;18.23;;
2848;SDS011;59355;52.416;13.412;2022-07-01T07:48:06;15.60;;;14.30;;
2848;SDS011;59355;52.416;13.412;2022-07-01T07:50:34;15.50;;;14.10;;
2848;SDS011;59355;52.416;13.412;2022-07-01T07:53:00;19.33;;;15.57;;
2848;SDS011;59355;52.416;13.412;2022-07-01T07:55:26;17.43;;;15.63;;
2848;SDS011;59355;52.416;13.412;2022-07-01T07:57:53;17.03;;;15.37;;
2848;SDS011;59355;52.416;13.412;2022-07-01T08:00:20;16.60;;;14.40;;
2848;SDS011;59355;52.416;13.412;2022-07-01T08:02:46;13.37;;;12.10;;
2848;SDS011;59355;52.416;13.412;2022-07-01T08:05:12;14.53;;;13.13;;
2848;SDS011;59355;52.416;13.412;2022-07-01T08:07:40;13.43;;;12.23;;
2848;SDS011;59355;52.416;13.412;2022-07-01T08:10:08;13.20;;;11.90;;
2848;SDS011;59355;52.416;13.412;2022-07-01T08:12:37;13.70;;;12.30;;
2848;SDS011;59355;52.416;13.412;2022-07-01T08:15:03;11.90;;;10.77;;
2848;SDS011;59355;52.416;13.412;2022-07-01T08:17:30;13.23;;;12.03;;
2848;SDS011;59355;52.416;13.412;2022-07-01T08:19:56;12.60;;;11.50;;
2848;SDS011;59355;52.416;13.412;2022-07-01T08:22:22;12.40;;;11.37;;
2848;SDS011;59355;52.416;13.412;2022-07-01T08:24:48;12.43;;;11.20;;
2848;SDS011;59355;52.416;13.412;2022-07-01T08:27:15;13.47;;;12.27;;
2848;SDS011;59355;52.416;13.412;2022-07-01T08:29:41;12.93;;;11.70;;
2848;SDS011;59355;52.416;13.412;2022-07-01T08:32:07;13.40;;;12.20;;
2848;SDS011;59355;52.416;13.412;2022-07-01T08:34:33;16.33;;;13.33;;
2848;SDS011;59355;52.416;13.412;2022-07-01T08:37:01;13.83;;;12.70;;
2848;SDS011;59355;52.416;13.412;2022-07-01T08:39:29;15.23;;;13.73;;
2848;SDS011;59355;52.416;13.412;2022-07-01T08:41:55;14.33;;;12.93;;
2848;SDS011;59355;52.416;13.412;2022-07-01T08:44:22;16.43;;;14.80;;
2848;SDS011;59355;52.416;13.412;2022-07-01T08:46:48;15.33;;;14.03;;
2848;SDS011;59355;52.416;13.412;2022-07-01T08:49:15;14.97;;;13.77;;
2848;SDS011;59355;52.416;13.412;2022-07-01T08:51:41;15.77;;;14.47;;
2848;SDS011;59355;52.416;13.412;2022-07-01T08:54:07;15.50;;;14.20;;
2848;SDS011;59355;52.416;13.412;2022-07-01T08:56:34;16.03;;;14.40;;
2848;SDS011;59355;52.416;13.412;2022-07-01T08:59:11;16.30;;;14.80;;
2848;SDS011;59355;52.416;13.412;2022-07-01T09:01:39;15.73;;;14.33;;
2848;SDS011;59355;52.416;13.412;2022-07-01T09:04:12;15.17;;;13.97;;
2848;SDS011;59355;52.416;13.412;2022-07-01T09:06:43;13.97;;;12.67;;
2848;SDS011;59355;52.416;13.412;2022-07-01T09:09:11;12.20;;;11.10;;
2848;SDS011;59355;52.416;13.412;2022-07-01T09:11:49;13.20;;;12.10;;
2848;SDS011;59355;52.416;13.412;2022-07-01T09:14:30;12.20;;;11.10;;
2848;SDS011;59355;52.416;13.412;2022-07-01T09:16:58;11.07;;;10.10;;
2848;SDS011;59355;52.416;13.412;2022-07-01T09:19:25;10.93;;;10.03;;
2848;SDS011;59355;52.416;13.412;2022-07-01T09:21:59;8.47;;;7.50;;
2848;SDS011;59355;52.416;13.412;2022-07-01T09:24:37;8.43;;;4.90;;
2848;SDS011;59355;52.416;13.412;2022-07-01T09:27:05;5.73;;;5.23;;
2848;SDS011;59355;52.416;13.412;2022-07-01T09:29:39;5.43;;;4.93;;
2848;SDS011;59355;52.416;13.412;2022-07-01T09:32:11;7.80;;;5.37;;
2848;SDS011;59355;52.416;13.412;2022-07-01T09:37:10;5.80;;;4.27;;
2848;SDS011;59355;52.416;13.412;2022-07-01T09:39:56;8.63;;;4.37;;
2848;SDS011;59355;52.416;13.412;2022-07-01T09:42:24;4.07;;;3.77;;
2848;SDS011;59355;52.416;13.412;2022-07-01T09:44:56;4.43;;;3.83;;
2848;SDS011;59355;52.416;13.412;2022-07-01T09:47:28;5.90;;;3.90;;
2848;SDS011;59355;52.416;13.412;2022-07-01T09:49:55;3.80;;;3.47;;
2848;SDS011;59355;52.416;13.412;2022-07-01T09:52:22;4.40;;;2.87;;
2848;SDS011;59355;52.416;13.412;2022-07-01T09:54:49;4.57;;;3.20;;
2848;SDS011;59355;52.416;13.412;2022-07-01T09:57:16;3.57;;;2.80;;
2848;SDS011;59355;52.416;13.412;2022-07-01T09:59:43;3.20;;;2.97;;
2848;SDS011;59355;52.416;13.412;2022-07-01T10:02:10;2.80;;;2.60;;
2848;SDS011;59355;52.416;13.412;2022-07-01T10:04:37;3.10;;;2.80;;
2848;SDS011;59355;52.416;13.412;2022-07-01T10:07:13;2.80;;;2.60;;
2848;SDS011;59355;52.416;13.412;2022-07-01T10:09:56;3.50;;;3.20;;
2848;SDS011;59355;52.416;13.412;2022-07-01T10:12:41;3.17;;;2.97;;
2848;SDS011;59355;52.416;13.412;2022-07-01T10:15:10;3.57;;;3.27;;
2848;SDS011;59355;52.416;13.412;2022-07-01T10:17:41;3.47;;;3.17;;
2848;SDS011;59355;52.416;13.412;2022-07-01T10:20:11;3.30;;;3.00;;
2848;SDS011;59355;52.416;13.412;2022-07-01T10:22:38;3.63;;;3.33;;
2848;SDS011;59355;52.416;13.412;2022-07-01T10:28:14;3.57;;;3.27;;
2848;SDS011;59355;52.416;13.412;2022-07-01T10:36:03;3.70;;;3.13;;
2848;SDS011;59355;52.416;13.412;2022-07-01T10:39:07;3.17;;;2.87;;
2848;SDS011;59355;52.416;13.412;2022-07-01T10:42:00;2.90;;;2.60;;
2848;SDS011;59355;52.416;13.412;2022-07-01T10:44:26;3.30;;;3.00;;
2848;SDS011;59355;52.416;13.412;2022-07-01T10:46:59;2.57;;;2.37;;
2848;SDS011;59355;52.416;13.412;2022-07-01T10:52:07;2.13;;;1.93;;
2848;SDS011;59355;52.416;13.412;2022-07-01T10:59:44;2.63;;;1.50;;
2848;SDS011;59355;52.416;13.412;2022-07-01T11:02:35;4.87;;;1.90;;
2848;SDS011;59355;52.416;13.412;2022-07-01T11:05:04;1.60;;;1.47;;
2848;SDS011;59355;52.416;13.412;2022-07-01T11:07:39;2.23;;;1.60;;
2848;SDS011;59355;52.416;13.412;2022-07-01T11:10:13;2.57;;;1.63;;
2848;SDS011;59355;52.416;13.412;2022-07-01T11:12:41;2.47;;;1.60;;
2848;SDS011;59355;52.416;13.412;2022-07-01T11:15:09;3.50;;;1.87;;
2848;SDS011;59355;52.416;13.412;2022-07-01T11:17:41;2.03;;;1.80;;
2848;SDS011;59355;52.416;13.412;2022-07-01T11:20:09;2.70;;;2.13;;
2848;SDS011;59355;52.416;13.412;2022-07-01T11:22:36;2.33;;;2.13;;
2848;SDS011;59355;52.416;13.412;2022-07-01T11:25:03;2.40;;;1.97;;
2848;SDS011;59355;52.416;13.412;2022-07-01T11:27:32;2.00;;;1.80;;
2848;SDS011;59355;52.416;13.412;2022-07-01T11:30:00;1.70;;;1.50;;
2848;SDS011;59355;52.416;13.412;2022-07-01T11:32:31;2.60;;;2.40;;
2848;SDS011;59355;52.416;13.412;2022-07-01T11:35:08;4.13;;;1.90;;
2848;SDS011;59355;52.416;13.412;2022-07-01T11:40:55;2.30;;;2.07;;
2848;SDS011;59355;52.416;13.412;2022-07-01T11:43:23;3.23;;;2.50;;
2848;SDS011;59355;52.416;13.412;2022-07-01T11:45:51;3.57;;;2.53;;
2848;SDS011;59355;52.416;13.412;2022-07-01T11:48:27;3.00;;;2.30;;
2848;SDS011;59355;52.416;13.412;2022-07-01T11:51:06;2.73;;;2.40;;
2848;SDS011;59355;52.416;13.412;2022-07-01T11:53:34;3.70;;;2.50;;
2848;SDS011;59355;52.416;13.412;2022-07-01T11:56:00;3.63;;;3.33;;
2848;SDS011;59355;52.416;13.412;2022-07-01T11:58:46;4.07;;;3.50;;
2848;SDS011;59355;52.416;13.412;2022-07-01T12:01:24;4.33;;;4.00;;
2848;SDS011;59355;52.416;13.412;2022-07-01T12:03:52;4.00;;;3.60;;
2848;SDS011;59355;52.416;13.412;2022-07-01T12:06:19;4.80;;;4.40;;
2848;SDS011;59355;52.416;13.412;2022-07-01T12:08:48;5.17;;;4.73;;
2848;SDS011;59355;52.416;13.412;2022-07-01T12:11:16;7.23;;;4.80;;
2848;SDS011;59355;52.416;13.412;2022-07-01T12:13:43;5.13;;;4.73;;
2848;SDS011;59355;52.416;13.412;2022-07-01T12:16:11;6.87;;;6.27;;
2848;SDS011;59355;52.416;13.412;2022-07-01T12:18:38;6.57;;;5.97;;
2848;SDS011;59355;52.416;13.412;2022-07-01T12:21:04;6.17;;;5.67;;
2848;SDS011;59355;52.416;13.412;2022-07-01T12:23:31;5.90;;;5.40;;
2848;SDS011;59355;52.416;13.412;2022-07-01T12:26:03;6.40;;;5.90;;
2848;SDS011;59355;52.416;13.412;2022-07-01T12:31:07;5.37;;;4.97;;
2848;SDS011;59355;52.416;13.412;2022-07-01T12:33:35;6.33;;;5.83;;
2848;SDS011;59355;52.416;13.412;2022-07-01T12:36:03;6.13;;;5.53;;
2848;SDS011;59355;52.416;13.412;2022-07-01T12:38:30;6.47;;;5.97;;
2848;SDS011;59355;52.416;13.412;2022-07-01T12:40:57;6.57;;;6.07;;
2848;SDS011;59355;52.416;13.412;2022-07-01T12:43:24;6.17;;;5.57;;
2848;SDS011;59355;52.416;13.412;2022-07-01T12:45:55;6.07;;;5.60;;
2848;SDS011;59355;52.416;13.412;2022-07-01T12:48:22;6.10;;;5.60;;
2848;SDS011;59355;52.416;13.412;2022-07-01T12:50:48;6.20;;;5.70;;
2848;SDS011;59355;52.416;13.412;2022-07-01T12:53:19;5.90;;;5.40;;
2848;SDS011;59355;52.416;13.412;2022-07-01T12:55:47;6.60;;;6.00;;
2848;SDS011;59355;52.416;13.412;2022-07-01T12:58:19;7.10;;;6.50;;
2848;SDS011;59355;52.416;13.412;2022-07-01T13:00:51;6.10;;;5.50;;
2848;SDS011;59355;52.416;13.412;2022-07-01T13:03:22;8.37;;;7.57;;
2848;SDS011;59355;52.416;13.412;2022-07-01T13:05:50;6.43;;;5.83;;
2848;SDS011;59355;52.416;13.412;2022-07-01T13:08:17;5.87;;;5.37;;
2848;SDS011;59355;52.416;13.412;2022-07-01T13:10:44;6.50;;;5.90;;
2848;SDS011;59355;52.416;13.412;2022-07-01T13:13:11;6.93;;;6.27;;
2848;SDS011;59355;52.416;13.412;2022-07-01T13:15:38;7.10;;;6.40;;
2848;SDS011;59355;52.416;13.412;2022-07-01T13:18:04;6.60;;;6.00;;
2848;SDS011;59355;52.416;13.412;2022-07-01T13:20:31;6.37;;;5.77;;
2848;SDS011;59355;52.416;13.412;2022-07-01T13:22:57;5.73;;;5.20;;
2848;SDS011;59355;52.416;13.412;2022-07-01T13:25:24;6.87;;;6.27;;
2848;SDS011;59355;52.416;13.412;2022-07-01T13:27:50;6.50;;;5.90;;
2848;SDS011;59355;52.416;13.412;2022-07-01T13:30:17;6.10;;;5.60;;
2848;SDS011;59355;52.416;13.412;2022-07-01T13:32:44;6.77;;;6.10;;
2848;SDS011;59355;52.416;13.412;2022-07-01T13:35:11;6.87;;;6.27;;
2848;SDS011;59355;52.416;13.412;2022-07-01T13:37:38;7.30;;;6.70;;
2848;SDS011;59355;52.416;13.412;2022-07-01T13:40:05;6.60;;;6.10;;
2848;SDS011;59355;52.416;13.412;2022-07-01T13:42:32;6.87;;;6.27;;
2848;SDS011;59355;52.416;13.412;2022-07-01T13:44:58;7.40;;;6.70;;
2848;SDS011;59355;52.416;13.412;2022-07-01T13:47:24;6.73;;;6.13;;
2848;SDS011;59355;52.416;13.412;2022-07-01T13:49:51;6.93;;;6.23;;
2848;SDS011;59355;52.416;13.412;2022-07-01T13:52:17;7.20;;;6.60;;
2848;SDS011;59355;52.416;13.412;2022-07-01T13:54:43;8.07;;;6.50;;
2848;SDS011;59355;52.416;13.412;2022-07-01T13:57:09;7.03;;;6.43;;
2848;SDS011;59355;52.416;13.412;2022-07-01T13:59:35;6.83;;;6.23;;
2848;SDS011;59355;52.416;13.412;2022-07-01T14:02:02;7.13;;;6.03;;
2848;SDS011;59355;52.416;13.412;2022-07-01T14:04:30;6.77;;;6.07;;
2848;SDS011;59355;52.416;13.412;2022-07-01T14:06:56;7.60;;;7.00;;
2848;SDS011;59355;52.416;13.412;2022-07-01T14:09:23;7.10;;;6.33;;
2848;SDS011;59355;52.416;13.412;2022-07-01T14:11:49;7.37;;;6.77;;
2848;SDS011;59355;52.416;13.412;2022-07-01T14:14:15;7.33;;;6.73;;
2848;SDS011;59355;52.416;13.412;2022-07-01T14:16:41;8.10;;;7.30;;
2848;SDS011;59355;52.416;13.412;2022-07-01T14:19:07;9.37;;;8.47;;
2848;SDS011;59355;52.416;13.412;2022-07-01T14:21:33;9.43;;;7.70;;
2848;SDS011;59355;52.416;13.412;2022-07-01T14:23:59;8.13;;;7.10;;
2848;SDS011;59355;52.416;13.412;2022-07-01T14:26:25;7.97;;;7.20;;
2848;SDS011;59355;52.416;13.412;2022-07-01T14:28:51;7.67;;;7.07;;
2848;SDS011;59355;52.416;13.412;2022-07-01T14:31:17;8.57;;;7.87;;
2848;SDS011;59355;52.416;13.412;2022-07-01T14:33:43;7.60;;;6.90;;
2848;SDS011;59355;52.416;13.412;2022-07-01T14:36:10;7.97;;;7.17;;
2848;SDS011;59355;52.416;13.412;2022-07-01T14:38:36;7.67;;;7.07;;
2848;SDS011;59355;52.416;13.412;2022-07-01T14:41:02;7.53;;;6.90;;
2848;SDS011;59355;52.416;13.412;2022-07-01T14:43:28;9.17;;;8.33;;
2848;SDS011;59355;52.416;13.412;2022-07-01T14:45:55;7.60;;;6.90;;
2848;SDS011;59355;52.416;13.412;2022-07-01T14:48:21;11.43;;;10.23;;
2848;SDS011;59355;52.416;13.412;2022-07-01T14:50:47;8.80;;;7.90;;
2848;SDS011;59355;52.416;13.412;2022-07-01T14:53:13;8.90;;;8.00;;
2848;SDS011;59355;52.416;13.412;2022-07-01T14:55:39;15.07;;;13.57;;
2848;SDS011;59355;52.416;13.412;2022-07-01T14:58:05;13.07;;;11.97;;
2848;SDS011;59355;52.416;13.412;2022-07-01T15:00:31;70.93;;;64.93;;